Time;durP1;ratioP1;P1;durP2;ratioP2;P2;SDS_P1;SDS_P2;PMS_P1;PMS_P2;Temp;Humidity;BMP_temperature;BMP_pressure;BME280_temperature;BME280_humidity;BME280_pressure;Samples;Min_cycle;Max_cycle;Signal;HPM_P1;HPM_P2
2022/01/01 00:00:28;;;;;;;52.37;23.93;;;8.60;99.90;;;;;;5006237;28;20209;-76
2022/01/01 00:03:16;;;;;;;56.23;24.80;;;8.60;99.90;;;;;;5007455;28;20207;-76
2022/01/01 00:06:05;;;;;;;51.77;24.17;;;8.70;99.90;;;;;;5007714;28;20199;-75
2022/01/01 00:08:53;;;;;;;58.37;28.63;;;8.60;99.90;;;;;;5005174;28;20205;-68
2022/01/01 00:11:41;;;;;;;64.57;29.90;;;8.60;99.90;;;;;;5008990;28;20222;-76
2022/01/01 00:14:28;;;;;;;52.50;24.23;;;8.60;99.90;;;;;;5004255;28;20206;-76
2022/01/01 00:17:16;;;;;;;64.83;31.37;;;8.60;99.90;;;;;;5009039;28;20222;-77
2022/01/01 00:20:05;;;;;;;66.50;30.23;;;8.60;99.90;;;;;;5007354;28;20213;-77
2022/01/01 00:22:54;;;;;;;68.03;32.53;;;8.60;99.90;;;;;;5005221;28;20204;-77
2022/01/01 00:25:42;;;;;;;66.87;32.63;;;8.60;99.90;;;;;;5008889;28;20213;-76
2022/01/01 00:28:29;;;;;;;66.93;33.47;;;8.60;99.90;;;;;;5008646;28;20669;-77
2022/01/01 00:31:18;;;;;;;73.63;33.33;;;8.60;99.90;;;;;;5012058;28;20297;-77
2022/01/01 00:34:06;;;;;;;61.23;29.33;;;8.60;99.90;;;;;;5016974;28;20212;-76
2022/01/01 00:36:59;;;;;;;64.70;33.37;;;8.60;99.90;;;;;;5018454;28;20234;-77
2022/01/01 00:39:59;;;;;;;69.90;34.60;;;8.60;99.90;;;;;;5025114;28;20699;-76
2022/01/01 00:42:52;;;;;;;64.40;31.37;;;8.60;99.90;;;;;;5027153;28;20348;-78
2022/01/01 00:45:44;;;;;;;69.20;32.67;;;8.60;99.90;;;;;;5025421;28;20210;-77
2022/01/01 00:48:32;;;;;;;62.53;32.73;;;8.70;99.90;;;;;;5024757;28;20202;-77
2022/01/01 00:51:19;;;;;;;64.13;30.60;;;8.70;99.90;;;;;;5017258;28;20198;-77
2022/01/01 00:54:07;;;;;;;60.90;30.60;;;8.70;99.90;;;;;;5017140;28;20309;-77
2022/01/01 00:56:56;;;;;;;63.47;30.97;;;8.70;99.90;;;;;;5016180;28;20240;-77
2022/01/01 00:59:43;;;;;;;65.27;30.43;;;8.70;99.90;;;;;;5016858;28;20204;-77
2022/01/01 01:02:31;;;;;;;59.70;28.03;;;8.70;99.90;;;;;;5021778;28;20209;-78
2022/01/01 01:05:19;;;;;;;52.57;26.03;;;8.70;99.90;;;;;;5017016;28;20206;-77
2022/01/01 01:08:07;;;;;;;51.03;23.80;;;8.70;99.90;;;;;;5022665;28;20206;-78
2022/01/01 01:10:56;;;;;;;55.97;27.23;;;8.80;99.90;;;;;;5009259;28;20218;-76
2022/01/01 01:13:55;;;;;;;52.43;25.97;;;8.80;99.90;;;;;;5016243;28;20214;-78
2022/01/01 01:16:42;;;;;;;43.50;19.67;;;8.90;99.90;;;;;;5016275;28;20217;-77
2022/01/01 01:19:30;;;;;;;46.80;23.13;;;8.90;99.90;;;;;;5019904;28;20221;-77
2022/01/01 01:22:17;;;;;;;46.97;22.80;;;8.90;99.90;;;;;;5015724;28;20202;-77
2022/01/01 01:25:06;;;;;;;45.00;21.07;;;9.00;99.90;;;;;;5020502;28;20190;-77
2022/01/01 01:27:53;;;;;;;38.00;19.53;;;9.00;99.90;;;;;;5017680;28;20205;-78
2022/01/01 01:30:42;;;;;;;36.70;17.60;;;9.00;99.90;;;;;;5015818;28;20326;-77
2022/01/01 01:33:30;;;;;;;37.57;18.50;;;9.10;99.90;;;;;;5014142;28;20214;-76
2022/01/01 01:36:17;;;;;;;32.03;16.70;;;9.10;99.90;;;;;;5020245;28;20606;-78
2022/01/01 01:39:05;;;;;;;31.17;16.23;;;9.10;99.90;;;;;;5011732;28;20319;-77
2022/01/01 01:41:53;;;;;;;31.77;16.87;;;9.10;99.90;;;;;;5020152;28;20324;-76
2022/01/01 01:44:43;;;;;;;33.80;17.70;;;9.20;99.90;;;;;;5020439;28;20202;-77
2022/01/01 01:47:35;;;;;;;32.00;17.00;;;9.20;99.90;;;;;;5016211;28;20256;-76
2022/01/01 01:50:23;;;;;;;32.57;16.30;;;9.20;99.90;;;;;;5011765;28;20207;-76
2022/01/01 01:53:11;;;;;;;27.43;15.23;;;9.20;99.90;;;;;;5013604;28;20211;-77
2022/01/01 01:55:59;;;;;;;28.63;14.87;;;9.20;99.90;;;;;;5020541;28;20241;-76
2022/01/01 01:58:47;;;;;;;29.40;14.93;;;9.30;99.90;;;;;;5017591;28;20206;-76
2022/01/01 02:01:34;;;;;;;28.03;15.53;;;9.30;99.90;;;;;;5013926;28;20210;-77
2022/01/01 02:04:23;;;;;;;24.63;14.03;;;9.30;99.90;;;;;;5015564;28;20206;-76
2022/01/01 02:07:11;;;;;;;30.07;14.47;;;9.30;99.90;;;;;;5013009;28;20199;-77
2022/01/01 02:09:59;;;;;;;28.77;13.07;;;9.30;99.90;;;;;;5013624;28;20218;-75
2022/01/01 02:12:51;;;;;;;21.57;12.80;;;9.30;99.90;;;;;;5017546;28;20205;-77
2022/01/01 02:15:46;;;;;;;26.33;13.47;;;9.30;99.90;;;;;;5023784;28;20577;-77
2022/01/01 02:18:34;;;;;;;24.27;13.73;;;9.30;99.90;;;;;;5021989;28;20198;-77
2022/01/01 02:21:23;;;;;;;22.13;12.30;;;9.30;99.90;;;;;;5020806;28;20202;-73
2022/01/01 02:24:11;;;;;;;21.63;11.97;;;9.30;99.90;;;;;;5020795;28;20199;-77
2022/01/01 02:26:58;;;;;;;21.90;11.73;;;9.30;99.90;;;;;;5023952;28;20194;-77
2022/01/01 02:29:46;;;;;;;22.80;11.50;;;9.40;99.90;;;;;;5014280;28;20213;-77
2022/01/01 02:32:33;;;;;;;24.20;13.23;;;9.40;99.90;;;;;;5014770;28;20344;-77
2022/01/01 02:35:21;;;;;;;18.00;11.17;;;9.40;99.90;;;;;;5013595;28;20198;-76
2022/01/01 02:38:10;;;;;;;15.80;9.43;;;9.40;99.90;;;;;;5011744;28;20237;-78
2022/01/01 02:40:58;;;;;;;15.10;9.20;;;9.40;99.90;;;;;;5014636;28;20202;-77
2022/01/01 02:43:46;;;;;;;20.17;10.30;;;9.40;99.90;;;;;;5021907;28;20202;-77
2022/01/01 02:46:33;;;;;;;17.03;9.33;;;9.40;99.90;;;;;;5016204;28;20314;-77
2022/01/01 02:49:21;;;;;;;16.70;9.30;;;9.40;99.90;;;;;;5013073;28;20210;-76
2022/01/01 02:52:09;;;;;;;14.27;7.87;;;9.40;99.90;;;;;;5012927;28;20219;-77
2022/01/01 02:54:58;;;;;;;15.60;8.53;;;9.40;99.90;;;;;;5013168;28;20263;-77
2022/01/01 02:57:45;;;;;;;14.20;8.00;;;9.40;99.90;;;;;;5016382;28;20227;-76
2022/01/01 03:00:33;;;;;;;9.83;5.67;;;9.40;99.90;;;;;;5013540;28;20206;-77
2022/01/01 03:03:20;;;;;;;12.90;6.70;;;9.40;99.90;;;;;;5019259;28;20558;-76
2022/01/01 03:06:08;;;;;;;12.17;7.00;;;9.40;99.90;;;;;;5003977;28;20198;-76
2022/01/01 03:08:56;;;;;;;14.13;7.87;;;9.40;99.90;;;;;;5016508;28;20682;-77
2022/01/01 03:11:45;;;;;;;11.40;6.37;;;9.40;99.90;;;;;;5015261;28;20231;-77
2022/01/01 03:14:33;;;;;;;11.13;6.57;;;9.40;99.90;;;;;;5014581;28;20216;-78
2022/01/01 03:17:21;;;;;;;12.70;7.00;;;9.40;99.90;;;;;;5022857;28;20217;-78
2022/01/01 03:20:10;;;;;;;13.07;7.03;;;9.40;99.90;;;;;;5017304;28;20199;-76
2022/01/01 03:22:57;;;;;;;9.67;6.90;;;9.40;99.90;;;;;;5017955;28;20206;-77
2022/01/01 03:25:45;;;;;;;12.53;6.73;;;9.40;99.90;;;;;;5013577;28;20210;-77
2022/01/01 03:28:34;;;;;;;16.23;7.60;;;9.40;99.90;;;;;;5012814;28;20612;-78
2022/01/01 03:31:23;;;;;;;12.57;7.30;;;9.40;99.90;;;;;;5018145;28;20193;-76
2022/01/01 03:34:11;;;;;;;11.97;7.60;;;9.40;99.90;;;;;;5018274;28;20225;-77
2022/01/01 03:36:58;;;;;;;12.07;6.93;;;9.40;99.90;;;;;;5013688;28;20950;-75
2022/01/01 03:39:46;;;;;;;14.33;8.37;;;9.40;99.90;;;;;;5014801;28;20593;-77
2022/01/01 03:42:33;;;;;;;14.57;9.53;;;9.40;99.90;;;;;;5012064;28;20212;-76
2022/01/01 03:45:22;;;;;;;17.77;9.47;;;9.40;99.90;;;;;;5015162;28;20696;-78
2022/01/01 03:48:10;;;;;;;17.53;9.27;;;9.40;99.90;;;;;;5015632;28;20202;-77
2022/01/01 03:50:57;;;;;;;11.37;6.60;;;9.40;99.90;;;;;;5020418;28;20198;-74
2022/01/01 03:53:45;;;;;;;10.43;6.50;;;9.40;99.90;;;;;;5020909;28;21748;-78
2022/01/01 03:56:32;;;;;;;11.00;6.67;;;9.50;99.90;;;;;;5014978;28;20206;-76
2022/01/01 03:59:20;;;;;;;9.80;6.50;;;9.50;99.90;;;;;;5008695;28;20194;-77
2022/01/01 04:02:09;;;;;;;10.47;6.57;;;9.40;99.90;;;;;;5013114;28;20203;-77
2022/01/01 04:04:57;;;;;;;9.87;6.47;;;9.50;99.90;;;;;;5018060;28;20642;-78
2022/01/01 04:07:44;;;;;;;10.63;6.00;;;9.40;99.90;;;;;;5019267;28;20206;-77
2022/01/01 04:10:32;;;;;;;11.57;6.53;;;9.40;99.90;;;;;;5018024;28;20237;-78
2022/01/01 04:13:19;;;;;;;15.70;8.37;;;9.50;99.90;;;;;;5018203;28;20193;-76
2022/01/01 04:16:07;;;;;;;10.77;6.67;;;9.40;99.90;;;;;;5020946;28;20206;-78
2022/01/01 04:18:56;;;;;;;12.30;7.70;;;9.40;99.90;;;;;;5016780;28;20689;-72
2022/01/01 04:21:44;;;;;;;12.77;6.93;;;9.50;99.90;;;;;;5010847;28;20682;-75
2022/01/01 04:24:32;;;;;;;9.00;6.63;;;9.50;99.90;;;;;;5010737;28;20207;-76
2022/01/01 04:27:19;;;;;;;14.47;8.47;;;9.50;99.90;;;;;;5010498;28;20672;-77
2022/01/01 04:30:08;;;;;;;13.47;8.17;;;9.50;99.90;;;;;;5011432;28;20203;-77
2022/01/01 04:32:55;;;;;;;16.90;9.90;;;9.50;99.90;;;;;;5011186;28;20251;-77
2022/01/01 04:35:44;;;;;;;11.80;8.50;;;9.50;99.90;;;;;;5012646;28;20202;-77
2022/01/01 04:38:40;;;;;;;11.17;8.10;;;9.50;99.90;;;;;;5009100;28;20922;-77
2022/01/01 04:41:27;;;;;;;13.20;8.43;;;9.60;99.90;;;;;;5009426;28;20198;-76
2022/01/01 04:44:15;;;;;;;12.20;8.00;;;9.60;99.90;;;;;;5013638;28;20280;-77
2022/01/01 04:47:03;;;;;;;14.07;8.00;;;9.60;99.90;;;;;;5012334;28;20210;-77
2022/01/01 04:49:50;;;;;;;12.27;8.20;;;9.60;99.90;;;;;;5010427;28;20219;-76
2022/01/01 04:52:39;;;;;;;13.40;8.27;;;9.60;99.90;;;;;;5011191;28;20211;-77
2022/01/01 04:55:27;;;;;;;11.40;7.53;;;9.70;99.90;;;;;;5009013;28;20196;-76
2022/01/01 04:58:14;;;;;;;8.23;5.77;;;9.70;99.90;;;;;;5012330;28;20209;-76
2022/01/01 05:01:02;;;;;;;14.23;8.73;;;9.60;99.90;;;;;;5011399;28;20210;-77
2022/01/01 05:03:49;;;;;;;17.53;8.70;;;9.70;99.90;;;;;;5014495;28;20209;-77
2022/01/01 05:06:37;;;;;;;15.20;10.40;;;9.70;99.90;;;;;;5013921;28;20210;-77
2022/01/01 05:09:27;;;;;;;13.50;8.80;;;9.60;99.90;;;;;;5012962;28;20195;-77
2022/01/01 05:12:15;;;;;;;15.40;9.83;;;9.60;99.90;;;;;;5008217;28;20275;-76
2022/01/01 05:15:03;;;;;;;13.43;9.57;;;9.60;99.90;;;;;;5016982;28;20200;-77
2022/01/01 05:17:50;;;;;;;12.00;7.73;;;9.60;99.90;;;;;;5020952;28;20226;-73
2022/01/01 05:20:38;;;;;;;15.13;9.03;;;9.60;99.90;;;;;;5016951;28;20217;-78
2022/01/01 05:23:25;;;;;;;17.60;10.03;;;9.60;99.90;;;;;;5018952;28;20195;-75
2022/01/01 05:26:14;;;;;;;16.73;9.60;;;9.70;99.90;;;;;;5016320;28;20661;-78
2022/01/01 05:29:02;;;;;;;9.87;6.33;;;9.70;99.90;;;;;;5014601;28;20206;-74
2022/01/01 05:31:49;;;;;;;13.87;9.50;;;9.70;99.90;;;;;;5024522;28;20313;-77
2022/01/01 05:34:37;;;;;;;14.50;9.60;;;9.70;99.90;;;;;;5025686;28;20210;-77
2022/01/01 05:37:24;;;;;;;12.73;7.93;;;9.70;99.90;;;;;;5010489;28;20609;-77
2022/01/01 05:40:14;;;;;;;13.27;8.40;;;9.70;99.90;;;;;;5019536;28;20204;-78
2022/01/01 05:43:03;;;;;;;12.57;8.30;;;9.70;99.90;;;;;;5021733;28;20202;-77
2022/01/01 05:45:50;;;;;;;9.20;5.80;;;9.70;99.90;;;;;;5025787;28;20195;-78
2022/01/01 05:48:39;;;;;;;14.37;6.97;;;9.80;99.90;;;;;;5021066;28;20277;-77
2022/01/01 05:51:26;;;;;;;10.07;6.40;;;9.70;99.90;;;;;;5019847;28;20197;-75
2022/01/01 05:54:14;;;;;;;7.17;5.17;;;9.70;99.90;;;;;;5019269;28;20202;-78
2022/01/01 05:57:02;;;;;;;7.30;4.67;;;9.70;99.90;;;;;;5018713;28;20197;-72
2022/01/01 05:59:51;;;;;;;8.03;4.90;;;9.70;99.90;;;;;;5018960;28;20595;-77
2022/01/01 06:02:41;;;;;;;9.47;5.97;;;9.70;99.90;;;;;;5015265;28;20686;-78
2022/01/01 06:05:29;;;;;;;7.33;4.47;;;9.60;99.90;;;;;;5012452;28;20206;-76
2022/01/01 06:08:17;;;;;;;10.83;6.10;;;9.60;99.90;;;;;;5015458;28;20557;-75
2022/01/01 06:11:04;;;;;;;10.10;6.20;;;9.60;99.90;;;;;;5012410;28;20233;-76
2022/01/01 06:13:52;;;;;;;8.73;5.07;;;9.60;99.90;;;;;;5016667;28;20216;-76
2022/01/01 06:16:41;;;;;;;9.43;6.13;;;9.60;99.90;;;;;;5017272;28;20275;-79
2022/01/01 06:19:28;;;;;;;11.07;6.07;;;9.60;99.90;;;;;;5012050;28;20301;-76
2022/01/01 06:22:17;;;;;;;14.63;7.77;;;9.50;99.90;;;;;;5014946;28;20229;-78
2022/01/01 06:25:05;;;;;;;7.93;5.30;;;9.60;99.90;;;;;;5014351;28;20206;-75
2022/01/01 06:27:53;;;;;;;12.37;7.77;;;9.50;99.90;;;;;;5012682;28;20198;-78
2022/01/01 06:30:41;;;;;;;12.37;7.47;;;9.50;99.90;;;;;;5013141;28;20202;-78
2022/01/01 06:33:30;;;;;;;13.07;8.30;;;9.50;99.90;;;;;;5013602;28;20210;-77
2022/01/01 06:36:17;;;;;;;13.13;8.53;;;9.50;99.90;;;;;;5011008;28;20784;-72
2022/01/01 06:39:05;;;;;;;12.40;7.77;;;9.60;99.90;;;;;;5013113;28;20245;-76
2022/01/01 06:41:52;;;;;;;10.00;7.27;;;9.60;99.90;;;;;;5011463;28;20672;-76
2022/01/01 06:44:42;;;;;;;10.20;6.97;;;9.60;99.90;;;;;;5013599;28;20210;-79
2022/01/01 06:47:29;;;;;;;13.53;7.00;;;9.60;99.90;;;;;;5014446;28;20776;-79
2022/01/01 06:50:19;;;;;;;10.03;6.87;;;9.60;99.90;;;;;;5014236;28;20207;-78
2022/01/01 06:53:06;;;;;;;9.77;6.27;;;9.60;99.90;;;;;;5013196;28;20191;-75
2022/01/01 06:55:54;;;;;;;10.00;6.70;;;9.60;99.90;;;;;;5014538;28;20607;-76
2022/01/01 06:58:42;;;;;;;9.37;6.87;;;9.50;99.90;;;;;;5017810;28;20225;-78
2022/01/01 07:01:29;;;;;;;9.80;7.00;;;9.50;99.90;;;;;;5013271;28;20199;-78
2022/01/01 07:04:17;;;;;;;15.83;8.20;;;9.50;99.90;;;;;;5007392;28;20202;-78
2022/01/01 07:07:06;;;;;;;10.70;7.03;;;9.50;99.90;;;;;;5016892;28;20203;-77
2022/01/01 07:09:53;;;;;;;10.13;7.23;;;9.50;99.90;;;;;;5020102;28;20354;-78
2022/01/01 07:13:27;;;;;;;10.00;6.53;;;9.50;99.90;;;;;;5007255;28;20330;-77
2022/01/01 07:16:15;;;;;;;11.50;7.10;;;9.60;99.90;;;;;;5013338;28;20199;-78
2022/01/01 07:19:02;;;;;;;15.77;9.90;;;9.50;99.90;;;;;;5019659;28;20281;-77
2022/01/01 07:21:50;;;;;;;13.33;8.80;;;9.60;99.90;;;;;;5014432;28;20204;-77
2022/01/01 07:24:39;;;;;;;12.73;8.10;;;9.60;99.90;;;;;;5013875;28;20230;-77
2022/01/01 07:27:27;;;;;;;16.00;8.77;;;9.60;99.90;;;;;;5013661;28;20260;-77
2022/01/01 07:30:14;;;;;;;13.03;8.67;;;9.60;99.90;;;;;;5015541;28;20190;-78
2022/01/01 07:33:02;;;;;;;14.00;8.37;;;9.60;99.90;;;;;;5020098;28;20203;-76
2022/01/01 07:35:49;;;;;;;11.20;6.97;;;9.60;99.90;;;;;;5016916;28;20205;-77
2022/01/01 07:39:21;;;;;;;13.13;9.37;;;9.60;99.90;;;;;;4462764;28;20334;-77
2022/01/01 07:42:12;;;;;;;16.00;10.23;;;9.60;99.90;;;;;;4997201;28;20259;-78
2022/01/01 07:45:00;;;;;;;17.50;9.27;;;9.60;99.90;;;;;;4990494;28;20211;-75
2022/01/01 07:47:48;;;;;;;17.93;9.53;;;9.70;99.90;;;;;;4993645;28;20203;-78
2022/01/01 07:50:36;;;;;;;18.53;10.53;;;9.70;99.90;;;;;;4992033;28;20575;-77
2022/01/01 07:53:23;;;;;;;16.67;9.47;;;9.70;99.90;;;;;;4993990;28;20571;-77
2022/01/01 07:56:11;;;;;;;17.63;10.20;;;9.60;99.90;;;;;;4994061;28;20348;-77
2022/01/01 07:59:00;;;;;;;17.30;10.47;;;9.70;99.90;;;;;;4996643;28;20305;-78
2022/01/01 08:01:47;;;;;;;16.77;9.80;;;9.60;99.90;;;;;;4994384;28;20340;-76
2022/01/01 08:04:35;;;;;;;17.60;10.37;;;9.60;99.90;;;;;;4997727;28;20206;-78
2022/01/01 08:07:23;;;;;;;16.50;10.27;;;9.60;99.90;;;;;;5001370;28;20218;-78
2022/01/01 08:10:10;;;;;;;21.57;11.50;;;9.60;99.90;;;;;;4993486;28;20210;-78
2022/01/01 08:12:58;;;;;;;19.13;10.23;;;9.70;99.90;;;;;;4995989;28;20306;-77
2022/01/01 08:15:47;;;;;;;19.70;11.10;;;9.70;99.90;;;;;;5000726;28;20407;-76
2022/01/01 08:18:34;;;;;;;16.53;9.97;;;9.70;99.90;;;;;;5002121;28;20291;-78
2022/01/01 08:21:22;;;;;;;19.17;11.53;;;9.60;99.90;;;;;;5002699;28;20198;-76
2022/01/01 08:24:10;;;;;;;20.30;11.23;;;9.60;99.90;;;;;;4997631;28;20358;-78
2022/01/01 08:26:57;;;;;;;18.30;10.53;;;9.70;99.90;;;;;;4991005;28;20566;-77
2022/01/01 08:29:45;;;;;;;20.83;11.07;;;9.60;99.90;;;;;;4990646;28;20274;-77
2022/01/01 08:32:34;;;;;;;19.40;11.03;;;9.60;99.90;;;;;;4995695;28;20198;-78
2022/01/01 08:35:21;;;;;;;16.50;10.63;;;9.60;99.90;;;;;;4991901;28;20203;-78
2022/01/01 08:38:09;;;;;;;17.63;10.93;;;9.60;99.90;;;;;;5000731;28;20235;-77
2022/01/01 08:40:57;;;;;;;18.40;10.87;;;9.70;99.90;;;;;;5016401;28;20541;-77
2022/01/01 08:43:44;;;;;;;17.23;10.23;;;9.70;99.90;;;;;;5006401;28;20206;-77
2022/01/01 08:46:32;;;;;;;12.33;7.40;;;9.70;99.90;;;;;;5011823;28;20257;-76
2022/01/01 08:49:21;;;;;;;13.77;8.37;;;9.70;99.90;;;;;;5016456;28;20194;-78
2022/01/01 08:52:11;;;;;;;13.20;8.90;;;9.70;99.90;;;;;;5021523;28;20202;-78
2022/01/01 08:54:59;;;;;;;14.10;8.80;;;9.70;99.90;;;;;;5022960;28;20233;-77
2022/01/01 08:57:47;;;;;;;15.10;8.70;;;9.70;99.90;;;;;;5020705;28;20206;-77
2022/01/01 09:00:35;;;;;;;13.67;8.20;;;9.60;99.90;;;;;;5003300;28;20268;-77
2022/01/01 09:03:22;;;;;;;11.70;7.27;;;9.70;99.90;;;;;;5012037;28;20206;-76
2022/01/01 09:06:11;;;;;;;14.70;8.97;;;9.70;99.90;;;;;;4999858;28;20282;-76
2022/01/01 09:08:59;;;;;;;14.73;8.37;;;9.70;99.90;;;;;;5008050;28;20204;-77
2022/01/01 09:11:47;;;;;;;14.23;9.17;;;9.60;99.90;;;;;;5009081;28;20238;-77
2022/01/01 09:14:35;;;;;;;11.23;6.93;;;9.60;99.90;;;;;;5003745;28;20209;-78
2022/01/01 09:17:22;;;;;;;10.90;7.03;;;9.60;99.90;;;;;;5007554;28;20203;-78
2022/01/01 09:20:11;;;;;;;11.47;7.27;;;9.70;99.90;;;;;;5017558;28;20250;-78
2022/01/01 09:23:00;;;;;;;15.80;7.47;;;9.70;99.90;;;;;;5002685;28;20290;-77
2022/01/01 09:25:47;;;;;;;10.47;6.63;;;9.70;99.90;;;;;;5007299;28;20252;-78
2022/01/01 09:28:35;;;;;;;10.30;6.20;;;9.70;99.90;;;;;;5010558;28;20207;-77
2022/01/01 09:31:23;;;;;;;12.17;7.13;;;9.70;99.90;;;;;;5009843;28;20255;-78
2022/01/01 09:34:10;;;;;;;17.50;7.10;;;9.70;99.90;;;;;;5012429;28;20295;-77
2022/01/01 09:36:58;;;;;;;12.03;7.70;;;9.70;99.90;;;;;;5008195;28;20211;-78
2022/01/01 09:39:47;;;;;;;12.27;7.93;;;9.70;99.90;;;;;;5014468;28;20757;-78
2022/01/01 09:42:34;;;;;;;13.47;8.80;;;9.70;99.90;;;;;;5011912;28;20618;-77
2022/01/01 09:45:22;;;;;;;14.47;8.60;;;9.70;99.90;;;;;;5014255;28;20198;-76
2022/01/01 09:48:10;;;;;;;14.03;8.87;;;9.70;99.90;;;;;;5011727;28;20195;-77
2022/01/01 09:51:01;;;;;;;14.93;8.50;;;9.70;99.90;;;;;;5011149;28;20199;-77
2022/01/01 09:53:48;;;;;;;12.13;7.80;;;9.80;99.90;;;;;;5018475;28;20206;-76
2022/01/01 09:56:38;;;;;;;15.90;8.73;;;9.80;99.90;;;;;;5006317;28;20314;-78
2022/01/01 09:59:25;;;;;;;14.60;8.20;;;9.80;99.90;;;;;;5011462;28;20234;-69
2022/01/01 10:02:13;;;;;;;12.43;7.07;;;9.80;99.90;;;;;;5016102;28;20210;-77
2022/01/01 10:05:04;;;;;;;17.73;8.50;;;9.80;99.90;;;;;;5012232;28;20300;-76
2022/01/01 10:07:51;;;;;;;14.03;8.53;;;9.80;99.90;;;;;;5008243;28;20306;-77
2022/01/01 10:10:41;;;;;;;17.53;8.90;;;9.80;99.90;;;;;;5003284;28;20245;-78
2022/01/01 10:13:32;;;;;;;15.43;8.73;;;9.90;99.90;;;;;;5009933;28;20198;-78
2022/01/01 10:16:19;;;;;;;14.83;8.83;;;9.90;99.90;;;;;;5006846;28;20210;-77
2022/01/01 10:19:07;;;;;;;18.37;9.67;;;9.90;99.90;;;;;;5013713;28;20712;-77
2022/01/01 10:21:56;;;;;;;14.37;8.77;;;9.90;99.90;;;;;;5010441;28;20853;-77
2022/01/01 10:27:54;;;;;;;15.17;8.07;;;9.90;99.90;;;;;;5012856;28;20273;-76
2022/01/01 10:30:44;;;;;;;10.37;6.40;;;9.90;99.90;;;;;;5011054;28;20789;-76
2022/01/01 10:33:33;;;;;;;11.57;6.13;;;9.90;99.90;;;;;;5010086;28;20211;-77
2022/01/01 10:36:21;;;;;;;10.87;6.20;;;9.80;99.90;;;;;;5010142;28;20191;-78
2022/01/01 10:39:12;;;;;;;7.87;5.70;;;9.90;99.90;;;;;;5009060;28;20226;-77
2022/01/01 10:42:03;;;;;;;11.83;6.03;;;9.90;99.90;;;;;;5009036;28;20226;-77
2022/01/01 10:44:51;;;;;;;10.90;5.77;;;9.80;99.90;;;;;;5008192;28;20574;-77
2022/01/01 10:47:42;;;;;;;11.80;5.70;;;9.80;99.90;;;;;;5013992;28;20708;-77
2022/01/01 10:50:33;;;;;;;11.63;7.37;;;9.80;99.90;;;;;;5010346;28;20212;-77
2022/01/01 10:53:22;;;;;;;13.63;7.93;;;9.80;99.90;;;;;;5007245;28;20703;-73
2022/01/01 10:56:18;;;;;;;13.73;8.03;;;9.70;99.90;;;;;;5012895;28;20672;-77
2022/01/01 10:59:09;;;;;;;15.43;9.10;;;9.70;99.90;;;;;;5002738;28;20309;-76
2022/01/01 11:01:57;;;;;;;16.77;9.93;;;9.80;99.90;;;;;;5011155;28;20277;-75
2022/01/01 11:04:46;;;;;;;13.93;8.37;;;9.80;99.90;;;;;;5003494;28;20207;-76
2022/01/01 11:07:35;;;;;;;16.47;10.30;;;9.80;99.90;;;;;;5010960;28;20738;-76
2022/01/01 11:10:23;;;;;;;17.53;9.43;;;9.80;99.90;;;;;;5004030;28;20566;-75
2022/01/01 11:13:11;;;;;;;17.67;10.80;;;9.80;99.90;;;;;;5010882;28;20341;-76
2022/01/01 11:15:59;;;;;;;22.03;12.97;;;9.80;99.90;;;;;;5004257;28;20658;-77
2022/01/01 11:18:47;;;;;;;22.47;12.77;;;9.80;99.90;;;;;;5010896;28;20205;-75
2022/01/01 11:21:35;;;;;;;21.83;12.83;;;9.90;99.90;;;;;;5018098;28;20203;-77
2022/01/01 11:24:25;;;;;;;24.63;13.67;;;9.80;99.90;;;;;;5010675;28;20282;-78
2022/01/01 11:27:12;;;;;;;27.53;13.97;;;9.90;99.90;;;;;;5002554;28;20681;-77
2022/01/01 11:30:02;;;;;;;26.13;14.03;;;9.90;99.90;;;;;;5010561;28;20225;-77
2022/01/01 11:32:51;;;;;;;25.60;13.87;;;9.90;99.90;;;;;;5011718;28;20198;-78
2022/01/01 11:35:40;;;;;;;28.37;15.03;;;9.80;99.90;;;;;;5009252;28;20210;-77
2022/01/01 11:38:29;;;;;;;27.60;14.43;;;9.80;99.90;;;;;;5009981;28;20234;-77
2022/01/01 11:41:18;;;;;;;29.17;14.97;;;9.80;99.90;;;;;;5010094;28;20620;-77
2022/01/01 11:44:16;;;;;;;23.70;13.70;;;9.80;99.90;;;;;;4996796;28;20207;-75
2022/01/01 11:47:06;;;;;;;24.40;13.63;;;9.90;99.90;;;;;;5010645;28;20210;-73
2022/01/01 11:49:54;;;;;;;25.37;14.57;;;9.80;99.90;;;;;;5008900;28;20202;-70
2022/01/01 11:52:44;;;;;;;21.40;12.67;;;9.90;99.90;;;;;;5009252;28;20248;-73
2022/01/01 11:56:12;;;;;;;20.83;11.77;;;9.80;99.90;;;;;;5010155;28;20252;-74
2022/01/01 11:59:00;;;;;;;20.63;11.73;;;9.80;99.90;;;;;;5013047;28;20198;-76
2022/01/01 12:01:48;;;;;;;21.33;12.77;;;9.80;99.90;;;;;;4942665;28;534397;-75
2022/01/01 12:04:38;;;;;;;24.27;12.32;;;9.80;99.90;;;;;;4358103;28;659095;-73
2022/01/01 12:07:30;;;;;;;19.63;10.73;;;9.80;99.90;;;;;;4352831;28;658419;-75
2022/01/01 12:10:23;;;;;;;22.73;11.27;;;9.80;99.90;;;;;;4406606;28;659119;-76
2022/01/01 12:13:12;;;;;;;19.47;12.07;;;9.80;99.90;;;;;;4535828;28;568076;-74
2022/01/01 12:16:01;;;;;;;23.63;13.13;;;9.70;99.90;;;;;;4416464;28;660538;-75
2022/01/01 12:18:48;;;;;;;23.87;12.47;;;9.80;99.90;;;;;;4383379;28;659085;-76
2022/01/01 12:21:41;;;;;;;23.23;12.87;;;9.80;99.90;;;;;;4390313;28;658859;-75
2022/01/01 12:24:29;;;;;;;21.97;13.27;;;9.70;99.90;;;;;;4398853;28;658802;-75
2022/01/01 12:27:16;;;;;;;27.03;13.60;;;9.70;99.90;;;;;;4401033;28;658833;-75
2022/01/01 12:30:07;;;;;;;24.27;12.70;;;9.70;99.90;;;;;;4412163;28;658718;-74
2022/01/01 12:32:56;;;;;;;26.00;13.67;;;9.70;99.90;;;;;;4415673;28;658643;-73
2022/01/01 12:35:49;;;;;;;24.73;14.40;;;9.70;99.90;;;;;;4421717;28;659467;-75
2022/01/01 12:38:39;;;;;;;25.00;13.97;;;9.70;99.90;;;;;;4378222;28;659654;-76
2022/01/01 12:41:31;;;;;;;27.10;14.88;;;9.70;99.90;;;;;;4397858;28;658437;-75
2022/01/01 12:44:20;;;;;;;26.13;14.70;;;9.70;99.90;;;;;;4396333;28;659132;-75
2022/01/01 12:47:09;;;;;;;26.90;14.07;;;9.70;99.90;;;;;;4395594;28;659628;-76
2022/01/01 12:49:59;;;;;;;25.17;13.57;;;9.70;99.90;;;;;;4404397;28;659322;-75
2022/01/01 12:52:46;;;;;;;23.43;13.60;;;9.70;99.90;;;;;;4399110;28;658791;-75
2022/01/01 12:55:34;;;;;;;25.57;13.30;;;9.70;99.90;;;;;;4408012;28;659798;-75
2022/01/01 12:58:22;;;;;;;22.77;13.20;;;9.80;99.90;;;;;;4390791;28;659490;-75
2022/01/01 13:01:15;;;;;;;25.47;14.17;;;9.80;99.90;;;;;;4399673;28;659322;-75
2022/01/01 13:04:06;;;;;;;23.07;13.50;;;9.80;99.90;;;;;;4357984;28;658941;-76
2022/01/01 13:06:55;;;;;;;23.37;14.17;;;9.80;99.90;;;;;;4375925;28;658557;-75
2022/01/01 13:09:43;;;;;;;24.77;14.13;;;9.80;99.90;;;;;;4390618;28;659893;-75
2022/01/01 13:12:34;;;;;;;26.80;15.93;;;9.80;99.90;;;;;;4392806;28;659255;-74
2022/01/01 13:15:21;;;;;;;25.13;15.33;;;9.80;99.90;;;;;;4389266;28;658755;-75
2022/01/01 13:18:10;;;;;;;30.53;16.97;;;9.70;99.90;;;;;;4411098;28;659950;-75
2022/01/01 13:20:59;;;;;;;29.00;17.60;;;9.70;99.90;;;;;;4386485;28;659589;-76
2022/01/01 13:23:46;;;;;;;30.40;16.90;;;9.80;99.90;;;;;;4391461;28;658466;-75
2022/01/01 13:26:34;;;;;;;28.37;17.47;;;9.80;99.90;;;;;;4406355;28;658910;-76
2022/01/01 13:29:22;;;;;;;30.00;15.03;;;9.70;99.90;;;;;;4387507;28;658681;-76
2022/01/01 13:32:09;;;;;;;25.33;15.97;;;9.70;99.90;;;;;;4412035;28;658625;-76
2022/01/01 13:34:57;;;;;;;30.53;15.93;;;9.70;99.90;;;;;;4398662;28;659624;-75
2022/01/01 13:37:46;;;;;;;28.27;15.20;;;9.70;99.90;;;;;;4419996;28;658423;-76
2022/01/01 13:40:35;;;;;;;28.57;15.90;;;9.70;99.90;;;;;;4384816;28;660131;-76
2022/01/01 13:43:27;;;;;;;26.67;15.93;;;9.60;99.90;;;;;;4387213;28;659124;-74
2022/01/01 13:46:16;;;;;;;29.57;15.70;;;9.60;99.90;;;;;;4389623;28;658917;-75
2022/01/01 13:49:03;;;;;;;25.67;12.40;;;9.70;99.90;;;;;;4387891;28;658819;-75
2022/01/01 13:52:00;;;;;;;27.80;16.57;;;9.60;99.90;;;;;;4394847;28;659163;-73
2022/01/01 13:54:49;;;;;;;25.73;14.90;;;9.70;99.90;;;;;;4370186;28;659816;-74
2022/01/01 13:57:39;;;;;;;27.77;15.33;;;9.70;99.90;;;;;;4393839;28;658363;-75
2022/01/01 14:00:27;;;;;;;25.80;16.00;;;9.60;99.90;;;;;;4390237;28;659468;-74
2022/01/01 14:03:15;;;;;;;30.27;17.90;;;9.60;99.90;;;;;;4410004;28;659079;-74
2022/01/01 14:06:49;;;;;;;27.83;16.53;;;9.60;99.90;;;;;;4414005;28;659211;-75
2022/01/01 14:09:36;;;;;;;27.33;16.20;;;9.60;99.90;;;;;;4389791;28;658154;-75
2022/01/01 14:12:26;;;;;;;32.13;16.37;;;9.50;99.90;;;;;;4402434;28;660187;-77
2022/01/01 14:15:44;;;;;;;29.30;16.43;;;9.50;99.90;;;;;;4389294;28;659951;-74
2022/01/01 14:18:32;;;;;;;35.83;16.50;;;9.60;99.90;;;;;;4367234;28;659356;-74
2022/01/01 14:21:21;;;;;;;30.63;15.37;;;9.50;99.90;;;;;;4421354;28;658580;-75
2022/01/01 14:24:52;;;;;;;30.50;14.90;;;9.50;99.90;;;;;;4386394;28;659439;-75
2022/01/01 14:27:41;;;;;;;25.80;14.17;;;9.50;99.90;;;;;;4390559;28;658522;-75
2022/01/01 14:30:29;;;;;;;24.90;13.03;;;9.50;99.90;;;;;;4397791;28;659103;-74
2022/01/01 14:33:16;;;;;;;28.20;14.40;;;9.50;99.90;;;;;;4385278;28;658893;-74
2022/01/01 14:36:04;;;;;;;22.77;13.60;;;9.50;99.90;;;;;;4418929;28;659109;-75